sensor_id;sensor_type;location;lat;lon;timestamp;pressure;altitude;pressure_sealevel;temperature;humidity
69713;BME280;56980;51.826;4.424;2022-11-04T00:01:40;100240.47;;;11.63;77.57
69713;BME280;56980;51.826;4.424;2022-11-04T00:04:06;100228.59;;;11.51;78.14
69713;BME280;56980;51.826;4.424;2022-11-04T00:06:31;100246.63;;;11.63;77.11
69713;BME280;56980;51.826;4.424;2022-11-04T00:08:57;100269.22;;;11.78;76.38
69713;BME280;56980;51.826;4.424;2022-11-04T00:11:24;100261.09;;;11.69;76.17
69713;BME280;56980;51.826;4.424;2022-11-04T00:14:10;100282.59;;;11.31;77.69
69713;BME280;56980;51.826;4.424;2022-11-04T00:16:35;100275.78;;;11.44;77.91
69713;BME280;56980;51.826;4.424;2022-11-04T00:19:19;100279.59;;;11.38;79.90
69713;BME280;56980;51.826;4.424;2022-11-04T00:21:45;100283.50;;;11.37;80.80
69713;BME280;56980;51.826;4.424;2022-11-04T00:24:29;100270.19;;;11.57;80.40
69713;BME280;56980;51.826;4.424;2022-11-04T00:26:55;100264.47;;;11.46;80.28
69713;BME280;56980;51.826;4.424;2022-11-04T00:29:39;100277.19;;;11.31;78.97
69713;BME280;56980;51.826;4.424;2022-11-04T00:32:05;100272.22;;;11.29;78.02
69713;BME280;56980;51.826;4.424;2022-11-04T00:34:48;100272.34;;;11.26;77.19
69713;BME280;56980;51.826;4.424;2022-11-04T00:37:14;100261.81;;;11.19;76.99
69713;BME280;56980;51.826;4.424;2022-11-04T00:39:39;100276.56;;;11.36;76.06
69713;BME280;56980;51.826;4.424;2022-11-04T00:42:04;100273.09;;;11.26;76.05
69713;BME280;56980;51.826;4.424;2022-11-04T00:44:30;100269.66;;;11.17;76.75
69713;BME280;56980;51.826;4.424;2022-11-04T00:46:55;100266.59;;;11.42;75.77
69713;BME280;56980;51.826;4.424;2022-11-04T00:49:20;100282.59;;;11.22;75.44
69713;BME280;56980;51.826;4.424;2022-11-04T00:51:46;100276.88;;;11.38;75.64
69713;BME280;56980;51.826;4.424;2022-11-04T00:54:11;100274.78;;;11.24;75.42
69713;BME280;56980;51.826;4.424;2022-11-04T00:56:37;100286.53;;;11.21;76.11
69713;BME280;56980;51.826;4.424;2022-11-04T00:59:03;100294.38;;;11.00;77.03
69713;BME280;56980;51.826;4.424;2022-11-04T01:01:30;100285.03;;;10.92;77.08
69713;BME280;56980;51.826;4.424;2022-11-04T01:03:55;100291.34;;;10.98;76.74
69713;BME280;56980;51.826;4.424;2022-11-04T01:06:23;100294.84;;;10.90;77.32
69713;BME280;56980;51.826;4.424;2022-11-04T01:08:55;100305.22;;;11.00;76.78
69713;BME280;56980;51.826;4.424;2022-11-04T01:11:20;100310.03;;;10.69;78.81
69713;BME280;56980;51.826;4.424;2022-11-04T01:13:49;100317.88;;;10.76;78.61
69713;BME280;56980;51.826;4.424;2022-11-04T01:16:14;100324.66;;;10.90;78.19
69713;BME280;56980;51.826;4.424;2022-11-04T01:18:40;100328.84;;;10.72;78.95
69713;BME280;56980;51.826;4.424;2022-11-04T01:21:07;100332.94;;;10.86;78.11
69713;BME280;56980;51.826;4.424;2022-11-04T01:23:33;100336.25;;;10.81;77.91
69713;BME280;56980;51.826;4.424;2022-11-04T01:25:59;100338.22;;;10.90;77.96
69713;BME280;56980;51.826;4.424;2022-11-04T01:28:24;100340.78;;;11.02;77.73
69713;BME280;56980;51.826;4.424;2022-11-04T01:30:50;100329.47;;;11.13;77.21
69713;BME280;56980;51.826;4.424;2022-11-04T01:33:15;100340.63;;;11.06;77.15
69713;BME280;56980;51.826;4.424;2022-11-04T01:35:40;100332.94;;;11.04;77.21
69713;BME280;56980;51.826;4.424;2022-11-04T01:38:06;100339.13;;;11.23;76.76
69713;BME280;56980;51.826;4.424;2022-11-04T01:40:36;100336.56;;;11.29;76.85
69713;BME280;56980;51.826;4.424;2022-11-04T01:43:01;100318.19;;;11.24;76.90
69713;BME280;56980;51.826;4.424;2022-11-04T01:45:27;100338.34;;;11.41;77.34
69713;BME280;56980;51.826;4.424;2022-11-04T01:48:00;100336.25;;;11.36;77.82
69713;BME280;56980;51.826;4.424;2022-11-04T01:50:29;100331.44;;;11.22;78.50
69713;BME280;56980;51.826;4.424;2022-11-04T01:53:08;100342.88;;;11.35;78.76
69713;BME280;56980;51.826;4.424;2022-11-04T01:55:42;100337.13;;;11.33;78.77
69713;BME280;56980;51.826;4.424;2022-11-04T01:58:14;100347.69;;;11.40;78.79
69713;BME280;56980;51.826;4.424;2022-11-04T02:00:41;100341.50;;;11.39;78.81
69713;BME280;56980;51.826;4.424;2022-11-04T02:03:11;100339.84;;;11.51;78.15
69713;BME280;56980;51.826;4.424;2022-11-04T02:05:37;100330.06;;;11.35;78.37
69713;BME280;56980;51.826;4.424;2022-11-04T02:08:05;100359.44;;;11.55;78.25
69713;BME280;56980;51.826;4.424;2022-11-04T02:10:32;100356.72;;;11.46;78.43
69713;BME280;56980;51.826;4.424;2022-11-04T02:13:01;100354.03;;;11.37;78.63
69713;BME280;56980;51.826;4.424;2022-11-04T02:24:13;100358.56;;;11.31;79.42
69713;BME280;56980;51.826;4.424;2022-11-04T02:35:38;100376.03;;;11.21;80.25
69713;BME280;56980;51.826;4.424;2022-11-04T02:46:27;100364.88;;;11.28;79.87
69713;BME280;56980;51.826;4.424;2022-11-04T02:51:54;100370.00;;;11.26;79.92
69713;BME280;56980;51.826;4.424;2022-11-04T02:54:27;100356.75;;;11.28;79.73
69713;BME280;56980;51.826;4.424;2022-11-04T02:56:57;100373.91;;;11.34;79.38
69713;BME280;56980;51.826;4.424;2022-11-04T02:59:37;100379.50;;;11.21;80.12
69713;BME280;56980;51.826;4.424;2022-11-04T03:02:06;100374.53;;;11.20;79.81
69713;BME280;56980;51.826;4.424;2022-11-04T03:04:37;100377.38;;;11.25;79.51
69713;BME280;56980;51.826;4.424;2022-11-04T03:07:09;100379.03;;;11.32;79.51
69713;BME280;56980;51.826;4.424;2022-11-04T03:09:39;100369.84;;;11.29;79.39
69713;BME280;56980;51.826;4.424;2022-11-04T03:12:11;100382.34;;;11.27;79.38
69713;BME280;56980;51.826;4.424;2022-11-04T03:14:42;100370.00;;;11.26;79.44
69713;BME280;56980;51.826;4.424;2022-11-04T03:17:22;100372.44;;;11.24;79.97
69713;BME280;56980;51.826;4.424;2022-11-04T03:19:55;100362.16;;;11.28;79.58
69713;BME280;56980;51.826;4.424;2022-11-04T03:22:24;100377.97;;;11.38;79.70
69713;BME280;56980;51.826;4.424;2022-11-04T03:24:52;100365.47;;;11.13;80.04
69713;BME280;56980;51.826;4.424;2022-11-04T03:27:42;100383.72;;;11.22;79.85
69713;BME280;56980;51.826;4.424;2022-11-04T03:30:14;100381.75;;;11.23;80.13
69713;BME280;56980;51.826;4.424;2022-11-04T03:35:15;100389.75;;;11.08;80.32
69713;BME280;56980;51.826;4.424;2022-11-04T03:37:42;100398.94;;;11.20;79.88
69713;BME280;56980;51.826;4.424;2022-11-04T03:40:09;100387.78;;;11.08;79.84
69713;BME280;56980;51.826;4.424;2022-11-04T03:42:41;100399.97;;;11.13;79.85
69713;BME280;56980;51.826;4.424;2022-11-04T03:45:08;100390.50;;;11.08;79.74
69713;BME280;56980;51.826;4.424;2022-11-04T03:47:34;100398.63;;;11.08;79.97
69713;BME280;56980;51.826;4.424;2022-11-04T03:50:06;100401.94;;;11.03;80.20
69713;BME280;56980;51.826;4.424;2022-11-04T03:52:33;100402.97;;;10.88;80.35
69713;BME280;56980;51.826;4.424;2022-11-04T03:54:59;100409.78;;;11.10;79.76
69713;BME280;56980;51.826;4.424;2022-11-04T04:00:22;100406.44;;;11.06;79.75
69713;BME280;56980;51.826;4.424;2022-11-04T04:08:11;100413.66;;;11.00;79.01
69713;BME280;56980;51.826;4.424;2022-11-04T04:10:42;100425.44;;;11.06;78.83
69713;BME280;56980;51.826;4.424;2022-11-04T04:13:36;100419.41;;;11.11;78.60
69713;BME280;56980;51.826;4.424;2022-11-04T04:16:17;100413.38;;;10.89;78.85
69713;BME280;56980;51.826;4.424;2022-11-04T04:18:50;100417.88;;;10.83;78.94
69713;BME280;56980;51.826;4.424;2022-11-04T04:21:21;100421.34;;;10.84;79.43
69713;BME280;56980;51.826;4.424;2022-11-04T04:23:52;100411.38;;;10.81;79.59
69713;BME280;56980;51.826;4.424;2022-11-04T04:26:38;100429.34;;;10.96;79.13
69713;BME280;56980;51.826;4.424;2022-11-04T04:29:24;100428.59;;;10.96;79.03
69713;BME280;56980;51.826;4.424;2022-11-04T04:31:53;100428.72;;;10.83;79.31
69713;BME280;56980;51.826;4.424;2022-11-04T04:34:30;100434.41;;;10.85;79.25
69713;BME280;56980;51.826;4.424;2022-11-04T04:37:10;100437.72;;;10.80;79.82
69713;BME280;56980;51.826;4.424;2022-11-04T04:39:44;100435.94;;;10.86;79.44
69713;BME280;56980;51.826;4.424;2022-11-04T04:42:33;100447.41;;;10.90;78.97
69713;BME280;56980;51.826;4.424;2022-11-04T04:45:32;100445.59;;;10.96;79.11
69713;BME280;56980;51.826;4.424;2022-11-04T04:47:59;100444.69;;;10.90;78.99
69713;BME280;56980;51.826;4.424;2022-11-04T04:50:27;100454.31;;;10.91;78.96
69713;BME280;56980;51.826;4.424;2022-11-04T04:52:55;100455.53;;;10.90;78.75
69713;BME280;56980;51.826;4.424;2022-11-04T04:55:22;100450.72;;;10.94;78.58
69713;BME280;56980;51.826;4.424;2022-11-04T04:57:48;100451.59;;;10.91;78.37
69713;BME280;56980;51.826;4.424;2022-11-04T05:00:16;100461.56;;;10.94;78.48
69713;BME280;56980;51.826;4.424;2022-11-04T05:02:42;100465.31;;;10.88;78.45
69713;BME280;56980;51.826;4.424;2022-11-04T05:05:08;100476.16;;;10.88;78.31
69713;BME280;56980;51.826;4.424;2022-11-04T05:07:34;100474.78;;;10.83;78.33
69713;BME280;56980;51.826;4.424;2022-11-04T05:09:59;100479.19;;;10.90;78.69
69713;BME280;56980;51.826;4.424;2022-11-04T05:12:24;100479.63;;;10.88;78.33
69713;BME280;56980;51.826;4.424;2022-11-04T05:14:50;100472.09;;;10.83;78.40
69713;BME280;56980;51.826;4.424;2022-11-04T05:17:15;100488.63;;;10.85;78.53
69713;BME280;56980;51.826;4.424;2022-11-04T05:19:41;100484.13;;;10.82;78.73
69713;BME280;56980;51.826;4.424;2022-11-04T05:22:07;100496.19;;;10.90;78.69
69713;BME280;56980;51.826;4.424;2022-11-04T05:24:32;100492.41;;;10.88;78.52
69713;BME280;56980;51.826;4.424;2022-11-04T05:26:57;100504.91;;;10.85;79.00
69713;BME280;56980;51.826;4.424;2022-11-04T05:29:23;100498.56;;;10.79;79.24
69713;BME280;56980;51.826;4.424;2022-11-04T05:31:48;100497.03;;;10.78;79.14
69713;BME280;56980;51.826;4.424;2022-11-04T05:34:14;100499.75;;;10.78;79.31
69713;BME280;56980;51.826;4.424;2022-11-04T05:36:39;100499.31;;;10.80;79.37
69713;BME280;56980;51.826;4.424;2022-11-04T05:39:05;100491.94;;;10.80;79.12
69713;BME280;56980;51.826;4.424;2022-11-04T05:41:32;100516.97;;;10.84;79.21
69713;BME280;56980;51.826;4.424;2022-11-04T05:43:59;100515.44;;;10.83;79.44
69713;BME280;56980;51.826;4.424;2022-11-04T05:46:25;100513.78;;;10.77;79.59
69713;BME280;56980;51.826;4.424;2022-11-04T05:48:51;100527.16;;;10.80;79.75
69713;BME280;56980;51.826;4.424;2022-11-04T05:51:24;100525.06;;;10.75;79.84
69713;BME280;56980;51.826;4.424;2022-11-04T05:53:50;100524.78;;;10.82;79.95
69713;BME280;56980;51.826;4.424;2022-11-04T05:56:16;100524.47;;;10.80;79.84
69713;BME280;56980;51.826;4.424;2022-11-04T05:58:41;100539.09;;;10.83;79.89
69713;BME280;56980;51.826;4.424;2022-11-04T06:01:26;100539.09;;;10.83;80.31
69713;BME280;56980;51.826;4.424;2022-11-04T06:03:53;100544.38;;;10.86;79.88
69713;BME280;56980;51.826;4.424;2022-11-04T06:06:19;100551.91;;;10.91;80.13
69713;BME280;56980;51.826;4.424;2022-11-04T06:08:44;100542.84;;;10.85;80.14
69713;BME280;56980;51.826;4.424;2022-11-04T06:11:10;100555.38;;;10.92;80.22
69713;BME280;56980;51.826;4.424;2022-11-04T06:13:35;100553.69;;;10.85;80.45
69713;BME280;56980;51.826;4.424;2022-11-04T06:16:01;100547.50;;;10.85;80.76
69713;BME280;56980;51.826;4.424;2022-11-04T06:18:27;100554.94;;;10.93;80.53
69713;BME280;56980;51.826;4.424;2022-11-04T06:21:06;100553.09;;;10.81;81.09
69713;BME280;56980;51.826;4.424;2022-11-04T06:23:32;100558.56;;;10.90;80.70
69713;BME280;56980;51.826;4.424;2022-11-04T06:25:57;100567.28;;;10.94;80.39
69713;BME280;56980;51.826;4.424;2022-11-04T06:28:22;100565.16;;;10.89;80.93
69713;BME280;56980;51.826;4.424;2022-11-04T06:30:48;100567.44;;;10.91;80.76
69713;BME280;56980;51.826;4.424;2022-11-04T06:33:13;100568.16;;;10.91;81.20
69713;BME280;56980;51.826;4.424;2022-11-04T06:35:38;100574.81;;;10.90;80.93
69713;BME280;56980;51.826;4.424;2022-11-04T06:38:04;100582.03;;;10.93;81.09
69713;BME280;56980;51.826;4.424;2022-11-04T06:40:29;100581.16;;;10.96;81.12
69713;BME280;56980;51.826;4.424;2022-11-04T06:42:55;100585.69;;;10.99;81.15
69713;BME280;56980;51.826;4.424;2022-11-04T06:45:20;100582.22;;;10.99;81.22
69713;BME280;56980;51.826;4.424;2022-11-04T06:47:46;100586.88;;;10.98;81.13
69713;BME280;56980;51.826;4.424;2022-11-04T06:50:11;100578.13;;;10.94;81.25
69713;BME280;56980;51.826;4.424;2022-11-04T06:52:37;100590.50;;;10.95;81.00
69713;BME280;56980;51.826;4.424;2022-11-04T06:55:02;100586.72;;;10.93;81.25
69713;BME280;56980;51.826;4.424;2022-11-04T06:57:28;100600.44;;;10.98;80.92
69713;BME280;56980;51.826;4.424;2022-11-04T06:59:53;100595.91;;;10.95;81.01
69713;BME280;56980;51.826;4.424;2022-11-04T07:02:19;100596.25;;;10.97;81.10
69713;BME280;56980;51.826;4.424;2022-11-04T07:04:44;100597.88;;;10.95;81.13
69713;BME280;56980;51.826;4.424;2022-11-04T07:07:09;100601.06;;;11.02;80.78
69713;BME280;56980;51.826;4.424;2022-11-04T07:09:35;100598.19;;;10.97;80.85
69713;BME280;56980;51.826;4.424;2022-11-04T07:12:00;100609.66;;;11.01;80.35
69713;BME280;56980;51.826;4.424;2022-11-04T07:14:25;100598.03;;;11.00;81.17
69713;BME280;56980;51.826;4.424;2022-11-04T07:16:51;100596.53;;;10.99;80.86
69713;BME280;56980;51.826;4.424;2022-11-04T07:19:17;100601.66;;;10.97;81.21
69713;BME280;56980;51.826;4.424;2022-11-04T07:21:42;100615.06;;;11.01;81.34
69713;BME280;56980;51.826;4.424;2022-11-04T07:24:07;100617.97;;;11.06;81.16
69713;BME280;56980;51.826;4.424;2022-11-04T07:26:33;100616.16;;;11.03;81.13
69713;BME280;56980;51.826;4.424;2022-11-04T07:28:58;100615.84;;;11.01;81.29
69713;BME280;56980;51.826;4.424;2022-11-04T07:31:25;100610.13;;;11.08;80.92
69713;BME280;56980;51.826;4.424;2022-11-04T07:33:50;100610.13;;;11.08;80.99
69713;BME280;56980;51.826;4.424;2022-11-04T07:36:16;100596.03;;;10.92;81.19
69713;BME280;56980;51.826;4.424;2022-11-04T07:38:42;100610.75;;;11.12;81.28
69713;BME280;56980;51.826;4.424;2022-11-04T07:41:08;100612.25;;;11.13;81.45
69713;BME280;56980;51.826;4.424;2022-11-04T07:43:33;100623.16;;;11.23;81.67
69713;BME280;56980;51.826;4.424;2022-11-04T07:46:18;100632.66;;;11.27;81.23
69713;BME280;56980;51.826;4.424;2022-11-04T07:48:44;100638.25;;;11.24;81.13
69713;BME280;56980;51.826;4.424;2022-11-04T07:51:13;100639.59;;;11.28;81.11
69713;BME280;56980;51.826;4.424;2022-11-04T07:53:40;100649.28;;;11.38;80.78
69713;BME280;56980;51.826;4.424;2022-11-04T07:56:07;100652.00;;;11.38;80.95
69713;BME280;56980;51.826;4.424;2022-11-04T07:58:36;100656.63;;;11.29;81.36
69713;BME280;56980;51.826;4.424;2022-11-04T08:01:05;100650.31;;;11.32;81.50
69713;BME280;56980;51.826;4.424;2022-11-04T08:03:32;100663.75;;;11.35;81.37
69713;BME280;56980;51.826;4.424;2022-11-04T08:05:59;100672.00;;;11.32;81.53
69713;BME280;56980;51.826;4.424;2022-11-04T08:08:26;100666.56;;;11.23;82.04
69713;BME280;56980;51.826;4.424;2022-11-04T08:10:56;100675.94;;;11.31;81.99
69713;BME280;56980;51.826;4.424;2022-11-04T08:13:23;100679.47;;;11.19;82.54
69713;BME280;56980;51.826;4.424;2022-11-04T08:15:51;100663.69;;;11.26;81.85
69713;BME280;56980;51.826;4.424;2022-11-04T08:18:16;100662.09;;;11.07;82.65
69713;BME280;56980;51.826;4.424;2022-11-04T08:20:49;100664.97;;;11.03;82.60
69713;BME280;56980;51.826;4.424;2022-11-04T08:23:15;100676.31;;;10.89;83.89
69713;BME280;56980;51.826;4.424;2022-11-04T08:25:41;100685.16;;;11.11;83.29
69713;BME280;56980;51.826;4.424;2022-11-04T08:28:07;100677.03;;;11.11;83.14
69713;BME280;56980;51.826;4.424;2022-11-04T08:30:32;100681.00;;;11.20;82.48
69713;BME280;56980;51.826;4.424;2022-11-04T08:32:58;100695.34;;;10.98;83.27
69713;BME280;56980;51.826;4.424;2022-11-04T08:35:24;100709.03;;;11.17;83.38
69713;BME280;56980;51.826;4.424;2022-11-04T08:37:49;100699.81;;;11.14;83.66
69713;BME280;56980;51.826;4.424;2022-11-04T08:40:15;100709.03;;;11.17;83.77
69713;BME280;56980;51.826;4.424;2022-11-04T08:42:40;100702.44;;;11.27;83.18
69713;BME280;56980;51.826;4.424;2022-11-04T08:45:06;100704.13;;;11.33;83.22
69713;BME280;56980;51.826;4.424;2022-11-04T08:47:31;100712.91;;;11.37;83.95
69713;BME280;56980;51.826;4.424;2022-11-04T08:49:56;100716.59;;;11.22;84.38
69713;BME280;56980;51.826;4.424;2022-11-04T08:52:22;100702.44;;;11.27;84.51
69713;BME280;56980;51.826;4.424;2022-11-04T08:54:47;100716.41;;;11.47;83.68
69713;BME280;56980;51.826;4.424;2022-11-04T08:57:14;100728.50;;;11.55;84.42
69713;BME280;56980;51.826;4.424;2022-11-04T08:59:39;100720.53;;;11.61;83.58
69713;BME280;56980;51.826;4.424;2022-11-04T09:02:05;100728.31;;;11.80;83.35
69713;BME280;56980;51.826;4.424;2022-11-04T09:04:30;100729.66;;;11.76;83.77
69713;BME280;56980;51.826;4.424;2022-11-04T09:06:55;100734.38;;;11.84;83.32
69713;BME280;56980;51.826;4.424;2022-11-04T09:09:21;100729.72;;;11.94;83.08
69713;BME280;56980;51.826;4.424;2022-11-04T09:11:47;100747.75;;;11.79;82.64
69713;BME280;56980;51.826;4.424;2022-11-04T09:14:13;100750.41;;;12.01;81.92
69713;BME280;56980;51.826;4.424;2022-11-04T09:16:39;100750.13;;;12.08;81.37
69713;BME280;56980;51.826;4.424;2022-11-04T09:19:05;100753.41;;;11.94;81.72
69713;BME280;56980;51.826;4.424;2022-11-04T09:21:31;100756.16;;;12.03;82.14
69713;BME280;56980;51.826;4.424;2022-11-04T09:23:56;100758.44;;;12.04;81.82
69713;BME280;56980;51.826;4.424;2022-11-04T09:26:23;100757.47;;;11.89;81.97
69713;BME280;56980;51.826;4.424;2022-11-04T09:28:56;100767.03;;;12.03;81.58
69713;BME280;56980;51.826;4.424;2022-11-04T09:31:22;100767.97;;;12.27;81.19
69713;BME280;56980;51.826;4.424;2022-11-04T09:33:48;100772.22;;;12.28;80.91
69713;BME280;56980;51.826;4.424;2022-11-04T09:36:14;100765.38;;;12.05;80.71
69713;BME280;56980;51.826;4.424;2022-11-04T09:38:40;100784.91;;;12.31;80.32
69713;BME280;56980;51.826;4.424;2022-11-04T09:43:59;100792.09;;;12.16;80.66
69713;BME280;56980;51.826;4.424;2022-11-04T09:46:28;100792.44;;;12.27;80.60
69713;BME280;56980;51.826;4.424;2022-11-04T09:48:56;100791.53;;;12.30;79.98
69713;BME280;56980;51.826;4.424;2022-11-04T09:51:24;100793.63;;;12.17;81.27
69713;BME280;56980;51.826;4.424;2022-11-04T09:53:55;100796.28;;;11.99;81.89
69713;BME280;56980;51.826;4.424;2022-11-04T09:59:27;100807.41;;;12.41;79.73
69713;BME280;56980;51.826;4.424;2022-11-04T10:02:07;100813.78;;;12.56;80.13
69713;BME280;56980;51.826;4.424;2022-11-04T10:09:49;100825.72;;;12.67;80.31
69713;BME280;56980;51.826;4.424;2022-11-04T10:15:12;100828.56;;;12.55;75.46
69713;BME280;56980;51.826;4.424;2022-11-04T10:23:09;100845.34;;;12.62;76.80
69713;BME280;56980;51.826;4.424;2022-11-04T10:26:05;100852.03;;;12.70;75.87
69713;BME280;56980;51.826;4.424;2022-11-04T10:28:41;100853.09;;;12.91;75.09
69713;BME280;56980;51.826;4.424;2022-11-04T10:31:12;100847.94;;;12.93;74.53
69713;BME280;56980;51.826;4.424;2022-11-04T10:33:49;100850.81;;;12.81;76.39
69713;BME280;56980;51.826;4.424;2022-11-04T10:36:16;100848.41;;;12.64;76.99
69713;BME280;56980;51.826;4.424;2022-11-04T10:38:53;100834.50;;;12.81;75.97
69713;BME280;56980;51.826;4.424;2022-11-04T10:43:45;100868.66;;;12.82;75.87
69713;BME280;56980;51.826;4.424;2022-11-04T10:52:00;100873.50;;;12.96;75.47
69713;BME280;56980;51.826;4.424;2022-11-04T10:54:26;100877.72;;;12.88;76.34
69713;BME280;56980;51.826;4.424;2022-11-04T10:56:55;100886.50;;;12.92;75.03
69713;BME280;56980;51.826;4.424;2022-11-04T10:59:25;100882.09;;;12.76;75.90
69713;BME280;56980;51.826;4.424;2022-11-04T11:01:53;100878.34;;;12.92;75.82
69713;BME280;56980;51.826;4.424;2022-11-04T11:04:33;100883.00;;;12.82;76.43
69713;BME280;56980;51.826;4.424;2022-11-04T11:07:07;100880.75;;;12.90;76.42
69713;BME280;56980;51.826;4.424;2022-11-04T11:09:56;100886.66;;;12.97;75.75
69713;BME280;56980;51.826;4.424;2022-11-04T11:12:26;100881.50;;;12.90;76.10
69713;BME280;56980;51.826;4.424;2022-11-04T11:14:55;100885.59;;;13.04;75.78
69713;BME280;56980;51.826;4.424;2022-11-04T11:17:23;100891.22;;;13.28;74.35
69713;BME280;56980;51.826;4.424;2022-11-04T11:20:39;100894.69;;;13.28;74.65
69713;BME280;56980;51.826;4.424;2022-11-04T11:22:48;100901.06;;;13.25;74.72
69713;BME280;56980;51.826;4.424;2022-11-04T11:25:32;100909.53;;;13.36;75.19
69713;BME280;56980;51.826;4.424;2022-11-04T11:27:59;100910.44;;;13.42;75.43
69713;BME280;56980;51.826;4.424;2022-11-04T11:30:34;100892.31;;;13.39;75.47
69713;BME280;56980;51.826;4.424;2022-11-04T11:33:05;100903.31;;;13.54;75.10
69713;BME280;56980;51.826;4.424;2022-11-04T11:35:50;100916.63;;;13.34;75.04
69713;BME280;56980;51.826;4.424;2022-11-04T11:38:30;100929.50;;;13.33;75.65
69713;BME280;56980;51.826;4.424;2022-11-04T11:41:12;100931.00;;;13.53;75.91
69713;BME280;56980;51.826;4.424;2022-11-04T11:43:44;100939.19;;;13.53;76.18
69713;BME280;56980;51.826;4.424;2022-11-04T11:46:20;100941.28;;;13.48;76.47
69713;BME280;56980;51.826;4.424;2022-11-04T11:48:51;100940.38;;;13.24;77.09
69713;BME280;56980;51.826;4.424;2022-11-04T11:51:28;100956.56;;;13.46;76.49
69713;BME280;56980;51.826;4.424;2022-11-04T11:54:14;100959.56;;;13.48;76.17
69713;BME280;56980;51.826;4.424;2022-11-04T11:56:44;100954.28;;;13.44;76.37
69713;BME280;56980;51.826;4.424;2022-11-04T11:59:22;100959.72;;;13.63;75.35
69713;BME280;56980;51.826;4.424;2022-11-04T12:02:03;100950.34;;;13.55;76.07
69713;BME280;56980;51.826;4.424;2022-11-04T12:04:35;100950.34;;;13.64;74.70
69713;BME280;56980;51.826;4.424;2022-11-04T12:12:31;100950.31;;;13.91;74.49
69713;BME280;56980;51.826;4.424;2022-11-04T12:15:15;100957.91;;;13.78;73.19
69713;BME280;56980;51.826;4.424;2022-11-04T12:21:04;100979.09;;;13.83;73.99
69713;BME280;56980;51.826;4.424;2022-11-04T12:23:43;100984.84;;;13.30;66.05
69713;BME280;56980;51.826;4.424;2022-11-04T12:31:28;100992.59;;;12.92;70.28
69713;BME280;56980;51.826;4.424;2022-11-04T12:34:25;100996.06;;;13.01;70.48
69713;BME280;56980;51.826;4.424;2022-11-04T12:45:09;101002.66;;;13.13;70.33
69713;BME280;56980;51.826;4.424;2022-11-04T12:47:42;101017.63;;;13.27;70.48
69713;BME280;56980;51.826;4.424;2022-11-04T12:50:37;101020.06;;;13.25;71.50
69713;BME280;56980;51.826;4.424;2022-11-04T12:53:28;101018.22;;;13.13;72.29
69713;BME280;56980;51.826;4.424;2022-11-04T13:01:22;101027.75;;;13.17;73.33
69713;BME280;56980;51.826;4.424;2022-11-04T13:03:58;101030.34;;;12.90;72.96
69713;BME280;56980;51.826;4.424;2022-11-04T13:06:37;101030.72;;;13.10;72.38
69713;BME280;56980;51.826;4.424;2022-11-04T13:09:13;101050.44;;;13.23;73.85
69713;BME280;56980;51.826;4.424;2022-11-04T13:11:55;101048.41;;;12.75;72.65
69713;BME280;56980;51.826;4.424;2022-11-04T13:14:23;101050.91;;;12.91;73.64
69713;BME280;56980;51.826;4.424;2022-11-04T13:16:55;101052.69;;;12.85;73.12
69713;BME280;56980;51.826;4.424;2022-11-04T13:22:24;101082.72;;;12.72;72.98
69713;BME280;56980;51.826;4.424;2022-11-04T13:27:32;101095.81;;;12.64;73.35
69713;BME280;56980;51.826;4.424;2022-11-04T13:30:05;101102.28;;;12.67;73.04
69713;BME280;56980;51.826;4.424;2022-11-04T13:32:48;101105.84;;;12.55;72.51
69713;BME280;56980;51.826;4.424;2022-11-04T13:35:28;101094.59;;;12.22;72.34
69713;BME280;56980;51.826;4.424;2022-11-04T13:38:11;101120.38;;;12.39;73.57
69713;BME280;56980;51.826;4.424;2022-11-04T13:40:58;101114.31;;;12.35;72.72
69713;BME280;56980;51.826;4.424;2022-11-04T13:43:33;101125.78;;;12.52;73.07
69713;BME280;56980;51.826;4.424;2022-11-04T13:46:24;101121.47;;;12.63;73.50
69713;BME280;56980;51.826;4.424;2022-11-04T13:51:33;101131.34;;;12.70;73.71
69713;BME280;56980;51.826;4.424;2022-11-04T13:53:59;101132.03;;;12.61;73.43
69713;BME280;56980;51.826;4.424;2022-11-04T13:56:35;101127.75;;;12.51;74.36
69713;BME280;56980;51.826;4.424;2022-11-04T14:01:33;101141.53;;;12.57;73.61
69713;BME280;56980;51.826;4.424;2022-11-04T14:09:33;101140.53;;;12.94;72.79
69713;BME280;56980;51.826;4.424;2022-11-04T14:14:51;101132.59;;;13.09;72.71
69713;BME280;56980;51.826;4.424;2022-11-04T14:25:40;101134.75;;;13.14;74.44
69713;BME280;56980;51.826;4.424;2022-11-04T14:38:37;101159.28;;;13.23;74.14
69713;BME280;56980;51.826;4.424;2022-11-04T14:43:40;101166.09;;;13.28;74.17
69713;BME280;56980;51.826;4.424;2022-11-04T14:46:06;101170.78;;;13.27;74.76
69713;BME280;56980;51.826;4.424;2022-11-04T14:48:32;101167.13;;;13.21;74.16
69713;BME280;56980;51.826;4.424;2022-11-04T14:50:58;101164.03;;;13.10;73.94
69713;BME280;56980;51.826;4.424;2022-11-04T14:53:30;101154.13;;;12.94;75.02
69713;BME280;56980;51.826;4.424;2022-11-04T14:56:13;101171.22;;;12.95;74.86
69713;BME280;56980;51.826;4.424;2022-11-04T14:58:54;101185.25;;;12.93;73.94
69713;BME280;56980;51.826;4.424;2022-11-04T15:01:19;101190.50;;;12.88;74.69
69713;BME280;56980;51.826;4.424;2022-11-04T15:03:45;101205.69;;;12.54;75.39
69713;BME280;56980;51.826;4.424;2022-11-04T15:06:11;101206.25;;;12.49;76.41
69713;BME280;56980;51.826;4.424;2022-11-04T15:11:12;101205.06;;;12.50;76.29
69713;BME280;56980;51.826;4.424;2022-11-04T15:13:48;101208.91;;;12.62;75.85
69713;BME280;56980;51.826;4.424;2022-11-04T15:16:25;101205.09;;;12.59;76.31
69713;BME280;56980;51.826;4.424;2022-11-04T15:18:54;101194.47;;;12.30;77.48
69713;BME280;56980;51.826;4.424;2022-11-04T15:21:20;101198.09;;;12.15;78.62
69713;BME280;56980;51.826;4.424;2022-11-04T15:23:48;101208.50;;;12.29;78.87